createdAt,value
2017-05-28T00:00:02.819Z,18.20
2017-05-28T00:00:59.107Z,18.20
2017-05-28T00:01:57.353Z,18.19
2017-05-28T00:02:53.683Z,18.17
2017-05-28T00:03:54.141Z,18.16
2017-05-28T00:04:50.512Z,18.15
2017-05-28T00:05:47.584Z,18.13
2017-05-28T00:06:43.908Z,18.12
2017-05-28T00:07:41.067Z,18.11
2017-05-28T00:08:37.379Z,18.09
2017-05-28T00:09:34.519Z,18.09
2017-05-28T00:10:30.812Z,18.08
2017-05-28T00:11:27.121Z,18.05
2017-05-28T00:12:24.231Z,18.06
2017-05-28T00:13:20.519Z,18.03
2017-05-28T00:14:16.851Z,18.02
2017-05-28T00:15:13.156Z,18.03
2017-05-28T00:16:10.414Z,18.00
2017-05-28T00:17:06.692Z,17.99
2017-05-28T00:18:02.966Z,17.99
2017-05-28T00:18:59.255Z,17.99
2017-05-28T00:19:56.315Z,17.98
2017-05-28T00:20:52.600Z,17.96
2017-05-28T00:21:49.824Z,17.94
2017-05-28T00:22:46.143Z,17.94
2017-05-28T00:23:42.484Z,17.94
2017-05-28T00:24:38.798Z,17.93
2017-05-28T00:25:36.026Z,17.91
2017-05-28T00:26:32.331Z,17.91
2017-05-28T00:27:28.596Z,17.89
2017-05-28T00:28:24.899Z,17.87
2017-05-28T00:29:21.207Z,17.88
2017-05-28T00:30:17.506Z,17.87
2017-05-28T00:31:13.851Z,17.86
2017-05-28T00:32:10.112Z,17.85
2017-05-28T00:33:06.428Z,17.84
2017-05-28T00:34:03.724Z,17.83
2017-05-28T00:35:00.043Z,17.83
2017-05-28T00:36:02.125Z,17.82
2017-05-28T00:36:58.475Z,17.82
2017-05-28T00:37:54.875Z,17.82
2017-05-28T00:38:52.044Z,17.80
2017-05-28T00:39:49.159Z,17.81
2017-05-28T00:40:45.439Z,17.79
2017-05-28T00:41:41.963Z,17.79
2017-05-28T00:42:38.244Z,17.78
2017-05-28T00:43:34.527Z,17.78
2017-05-28T00:44:30.848Z,17.76
2017-05-28T00:45:27.475Z,17.76
2017-05-28T00:46:24.943Z,17.75
2017-05-28T00:47:25.781Z,17.75
2017-05-28T00:48:22.165Z,17.73
2017-05-28T00:49:18.484Z,17.72
2017-05-28T00:50:15.603Z,17.72
2017-05-28T00:51:11.895Z,17.71
2017-05-28T00:52:08.175Z,17.70
2017-05-28T00:53:04.496Z,17.69
2017-05-28T00:54:00.804Z,17.68
2017-05-28T00:54:57.100Z,17.68
2017-05-28T00:55:53.379Z,17.67
2017-05-28T00:56:50.559Z,17.66
2017-05-28T00:57:46.834Z,17.65
2017-05-28T00:58:43.183Z,17.63
2017-05-28T00:59:40.339Z,17.63
2017-05-28T01:00:36.611Z,17.62
2017-05-28T01:01:32.920Z,17.62
2017-05-28T01:02:29.199Z,17.60
2017-05-28T01:03:25.552Z,17.61
2017-05-28T01:04:21.897Z,17.59
2017-05-28T01:05:18.167Z,17.59
2017-05-28T01:06:14.463Z,17.57
2017-05-28T01:07:11.736Z,17.57
2017-05-28T01:08:08.079Z,17.56
2017-05-28T01:09:04.364Z,17.55
2017-05-28T01:10:01.621Z,17.54
2017-05-28T01:10:57.888Z,17.55
2017-05-28T01:11:54.210Z,17.53
2017-05-28T01:12:50.518Z,17.52
2017-05-28T01:13:47.770Z,17.50
2017-05-28T01:14:44.083Z,17.48
2017-05-28T01:15:40.371Z,17.49
2017-05-28T01:16:36.639Z,17.48
2017-05-28T01:17:33.208Z,17.46
2017-05-28T01:18:29.748Z,17.45
2017-05-28T01:19:27.068Z,17.44
2017-05-28T01:20:23.403Z,17.44
2017-05-28T01:21:20.651Z,17.42
2017-05-28T01:22:16.979Z,17.40
2017-05-28T01:23:13.252Z,17.38
2017-05-28T01:24:09.574Z,17.38
2017-05-28T01:25:05.917Z,17.36
2017-05-28T01:26:02.264Z,17.35
2017-05-28T01:26:59.388Z,17.34
2017-05-28T01:27:55.659Z,17.33
2017-05-28T01:28:52.017Z,17.32
2017-05-28T01:29:49.216Z,17.31
2017-05-28T01:30:46.747Z,17.29
2017-05-28T01:31:43.040Z,17.28
2017-05-28T01:32:39.348Z,17.28
2017-05-28T01:33:35.680Z,17.26
2017-05-28T01:34:32.144Z,17.25
2017-05-28T01:35:28.819Z,17.25
2017-05-28T01:36:25.115Z,17.25
2017-05-28T01:37:22.364Z,17.23
2017-05-28T01:38:19.491Z,17.22
2017-05-28T01:39:15.763Z,17.21
2017-05-28T01:40:12.059Z,17.19
2017-05-28T01:41:08.364Z,17.19
2017-05-28T01:42:04.679Z,17.19
2017-05-28T01:43:00.999Z,17.19
2017-05-28T01:43:57.312Z,17.18
2017-05-28T01:44:54.682Z,17.17
2017-05-28T01:45:50.972Z,17.17
2017-05-28T01:46:47.284Z,17.15
2017-05-28T01:47:44.552Z,17.14
2017-05-28T01:48:41.928Z,17.13
2017-05-28T01:49:39.272Z,17.13
2017-05-28T01:50:35.679Z,17.13
2017-05-28T01:51:32.010Z,17.12
2017-05-28T01:52:29.236Z,17.11
2017-05-28T01:53:25.563Z,17.10
2017-05-28T01:54:21.900Z,17.11
2017-05-28T01:55:18.263Z,17.10
2017-05-28T01:56:14.559Z,17.09
2017-05-28T01:57:10.900Z,17.07
2017-05-28T01:58:07.342Z,17.08
2017-05-28T01:59:03.655Z,17.07
2017-05-28T02:00:00.833Z,17.06
2017-05-28T02:00:57.218Z,17.05
2017-05-28T02:01:53.564Z,17.04
2017-05-28T02:02:49.916Z,17.04
2017-05-28T02:03:46.201Z,17.04
2017-05-28T02:04:42.646Z,17.02
2017-05-28T02:05:39.903Z,17.02
2017-05-28T02:06:36.204Z,17.01
2017-05-28T02:07:32.503Z,16.99
2017-05-28T02:08:29.645Z,16.99
2017-05-28T02:09:26.241Z,16.98
2017-05-28T02:10:22.727Z,16.96
2017-05-28T02:12:21.483Z,16.96
2017-05-28T02:13:18.799Z,16.95
2017-05-28T02:14:15.407Z,16.94
2017-05-28T02:15:11.707Z,16.93
2017-05-28T02:16:08.836Z,16.92
2017-05-28T02:17:05.172Z,16.92
2017-05-28T02:18:03.355Z,16.90
2017-05-28T02:18:59.675Z,16.90
2017-05-28T02:19:56.011Z,16.90
2017-05-28T02:20:52.311Z,16.88
2017-05-28T02:21:50.807Z,16.87
2017-05-28T02:22:47.143Z,16.87
2017-05-28T02:23:43.467Z,16.85
2017-05-28T02:24:42.711Z,16.85
2017-05-28T02:25:39.015Z,16.84
2017-05-28T02:26:35.323Z,16.83
2017-05-28T02:27:33.546Z,16.83
2017-05-28T02:31:51.883Z,16.80
2017-05-28T02:32:48.196Z,16.79
2017-05-28T02:33:45.748Z,16.79
2017-05-28T02:34:42.059Z,16.78
2017-05-28T02:35:38.339Z,16.77
2017-05-28T02:36:35.561Z,16.76
2017-05-28T02:37:32.047Z,16.75
2017-05-28T02:38:30.239Z,16.75
2017-05-28T02:39:26.584Z,16.74
2017-05-28T02:40:22.912Z,16.75
2017-05-28T02:41:20.140Z,16.72
2017-05-28T02:42:17.428Z,16.73
2017-05-28T02:43:13.795Z,16.72
2017-05-28T02:44:10.179Z,16.71
2017-05-28T02:45:06.469Z,16.71
2017-05-28T02:46:02.779Z,16.70
2017-05-28T02:46:59.191Z,16.70
2017-05-28T02:47:55.631Z,16.69
2017-05-28T02:48:51.941Z,16.67
2017-05-28T02:49:48.335Z,16.68
2017-05-28T02:50:44.902Z,16.66
2017-05-28T02:51:41.396Z,16.66
2017-05-28T02:52:37.835Z,16.65
2017-05-28T02:53:34.603Z,16.64
2017-05-28T02:54:30.927Z,16.63
2017-05-28T02:55:27.247Z,16.63
2017-05-28T02:56:23.635Z,16.62
2017-05-28T02:57:19.959Z,16.62
2017-05-28T02:58:16.271Z,16.60
2017-05-28T02:59:12.599Z,16.60
2017-05-28T03:00:09.731Z,16.60
2017-05-28T03:01:06.059Z,16.59
2017-05-28T03:02:02.363Z,16.58
2017-05-28T03:02:58.727Z,16.58
2017-05-28T03:03:55.063Z,16.55
2017-05-28T03:04:51.368Z,16.55
2017-05-28T03:05:47.727Z,16.55
2017-05-28T03:06:44.096Z,16.54
2017-05-28T03:07:40.415Z,16.53
2017-05-28T03:08:37.702Z,16.53
2017-05-28T03:09:34.868Z,16.52
2017-05-28T03:10:33.152Z,16.51
2017-05-28T03:11:29.423Z,16.50
2017-05-28T03:12:26.667Z,16.50
2017-05-28T03:13:22.982Z,16.52
2017-05-28T03:14:20.048Z,16.58
2017-05-28T03:15:16.348Z,16.66
2017-05-28T03:16:14.659Z,16.73
2017-05-28T03:17:10.966Z,16.78
2017-05-28T03:18:07.407Z,16.84
2017-05-28T03:19:04.471Z,16.86
2017-05-28T03:20:00.783Z,16.91
2017-05-28T03:20:57.104Z,16.94
2017-05-28T03:21:53.427Z,16.99
2017-05-28T03:22:49.761Z,17.01
2017-05-28T03:23:46.083Z,17.05
2017-05-28T03:24:42.391Z,17.08
2017-05-28T03:25:38.703Z,17.10
2017-05-28T03:26:34.991Z,17.12
2017-05-28T03:27:31.303Z,17.15
2017-05-28T03:28:27.643Z,17.17
2017-05-28T03:29:23.963Z,17.17
2017-05-28T03:30:20.307Z,17.19
2017-05-28T03:31:16.610Z,17.20
2017-05-28T03:32:13.123Z,17.21
2017-05-28T03:33:09.416Z,17.23
2017-05-28T03:34:05.695Z,17.24
2017-05-28T03:35:02.007Z,17.25
2017-05-28T03:35:59.267Z,17.26
2017-05-28T03:36:56.547Z,17.27
2017-05-28T03:37:52.883Z,17.28
2017-05-28T03:38:49.179Z,17.28
2017-05-28T03:39:46.391Z,17.29
2017-05-28T03:40:43.495Z,17.29
2017-05-28T03:41:39.820Z,17.31
2017-05-28T03:42:36.096Z,17.31
2017-05-28T03:43:33.424Z,17.32
2017-05-28T03:44:29.810Z,17.31
2017-05-28T03:45:26.099Z,17.32
2017-05-28T03:46:23.343Z,17.32
2017-05-28T03:47:19.640Z,17.32
2017-05-28T03:48:15.928Z,17.32
2017-05-28T03:49:15.111Z,17.32
2017-05-28T03:50:11.439Z,17.32
2017-05-28T03:51:07.722Z,17.33
2017-05-28T03:52:03.994Z,17.33
2017-05-28T03:53:00.304Z,17.32
2017-05-28T03:53:57.548Z,17.33
2017-05-28T03:54:53.852Z,17.32
2017-05-28T03:55:50.138Z,17.33
2017-05-28T03:56:46.483Z,17.32
2017-05-28T03:57:42.743Z,17.33
2017-05-28T03:58:39.031Z,17.32
2017-05-28T03:59:36.131Z,17.32
2017-05-28T04:00:33.399Z,17.31
2017-05-28T04:01:30.463Z,17.30
2017-05-28T04:02:26.731Z,17.30
2017-05-28T04:03:23.032Z,17.30
2017-05-28T04:04:19.320Z,17.30
2017-05-28T04:05:16.714Z,17.30
2017-05-28T04:06:12.987Z,17.29
2017-05-28T04:07:09.263Z,17.28
2017-05-28T04:08:05.571Z,17.27
2017-05-28T04:09:01.928Z,17.27
2017-05-28T04:09:58.219Z,17.27
2017-05-28T04:10:54.542Z,17.28
2017-05-28T04:11:50.872Z,17.27
2017-05-28T04:12:47.199Z,17.25
2017-05-28T04:13:43.482Z,17.25
2017-05-28T04:14:39.768Z,17.26
2017-05-28T04:15:36.084Z,17.25
2017-05-28T04:16:33.160Z,17.26
2017-05-28T04:17:30.339Z,17.25
2017-05-28T04:18:26.657Z,17.26
2017-05-28T04:19:22.935Z,17.25
2017-05-28T04:20:20.243Z,17.26
2017-05-28T04:21:16.536Z,17.26
2017-05-28T04:22:12.822Z,17.26
2017-05-28T04:23:09.128Z,17.25
2017-05-28T04:24:05.539Z,17.25
2017-05-28T04:25:01.863Z,17.26
2017-05-28T04:25:58.230Z,17.27
2017-05-28T04:26:54.579Z,17.27
2017-05-28T04:27:50.911Z,17.26
2017-05-28T04:28:47.249Z,17.26
2017-05-28T04:29:43.596Z,17.27
2017-05-28T04:30:39.948Z,17.27
2017-05-28T04:31:36.324Z,17.27
2017-05-28T04:32:33.459Z,17.28
2017-05-28T04:33:32.631Z,17.29
2017-05-28T04:34:28.975Z,17.29
2017-05-28T04:35:26.189Z,17.29
2017-05-28T04:36:24.516Z,17.30
2017-05-28T04:37:20.859Z,17.30
2017-05-28T04:38:17.131Z,17.30
2017-05-28T04:39:13.462Z,17.30
2017-05-28T04:40:09.983Z,17.33
2017-05-28T04:41:06.288Z,17.32
2017-05-28T04:42:02.563Z,17.34
2017-05-28T04:42:58.924Z,17.35
2017-05-28T04:43:55.188Z,17.35
2017-05-28T04:44:51.483Z,17.36
2017-05-28T04:45:47.775Z,17.38
2017-05-28T04:46:44.059Z,17.39
2017-05-28T04:47:40.346Z,17.38
2017-05-28T04:48:37.406Z,17.40
2017-05-28T04:49:33.711Z,17.42
2017-05-28T04:50:29.991Z,17.42
2017-05-28T04:51:26.296Z,17.45
2017-05-28T04:52:22.651Z,17.45
2017-05-28T04:53:18.959Z,17.46
2017-05-28T04:54:15.235Z,17.48
2017-05-28T04:55:11.547Z,17.49
2017-05-28T04:56:07.879Z,17.50
2017-05-28T04:57:04.163Z,17.51
2017-05-28T04:58:00.483Z,17.51
2017-05-28T04:58:56.767Z,17.53
2017-05-28T04:59:53.142Z,17.56
2017-05-28T05:00:50.335Z,17.57
2017-05-28T05:01:46.663Z,17.57
2017-05-28T05:02:42.936Z,17.60
2017-05-28T05:03:39.228Z,17.60
2017-05-28T05:04:35.540Z,17.61
2017-05-28T05:05:31.843Z,17.63
2017-05-28T05:06:28.172Z,17.64
2017-05-28T05:07:24.500Z,17.65
2017-05-28T05:08:20.927Z,17.67
2017-05-28T05:09:17.202Z,17.69
2017-05-28T05:10:13.487Z,17.71
2017-05-28T05:11:09.807Z,17.72
2017-05-28T05:12:06.119Z,17.73
2017-05-28T05:13:02.411Z,17.76
2017-05-28T05:13:58.731Z,17.78
2017-05-28T05:14:54.992Z,17.79
2017-05-28T05:15:51.315Z,17.80
2017-05-28T05:16:48.451Z,17.82
2017-05-28T05:17:44.726Z,17.83
2017-05-28T05:18:41.025Z,17.86
2017-05-28T05:19:37.323Z,17.87
2017-05-28T05:20:33.615Z,17.89
2017-05-28T05:21:30.923Z,17.91
2017-05-28T05:22:28.207Z,17.94
2017-05-28T05:23:24.527Z,17.97
2017-05-28T05:24:20.840Z,17.99
2017-05-28T05:25:18.107Z,18.02
2017-05-28T05:26:14.431Z,18.05
2017-05-28T05:27:10.699Z,18.07
2017-05-28T05:28:06.952Z,18.09
2017-05-28T05:29:03.235Z,18.11
2017-05-28T05:30:00.467Z,18.13
2017-05-28T05:30:56.743Z,18.16
2017-05-28T05:31:53.023Z,18.17
2017-05-28T05:32:49.299Z,18.21
2017-05-28T05:33:45.579Z,18.22
2017-05-28T05:34:41.823Z,18.24
2017-05-28T05:35:38.117Z,18.27
2017-05-28T05:36:35.283Z,18.31
2017-05-28T05:37:32.454Z,18.32
2017-05-28T05:38:28.720Z,18.35
2017-05-28T05:39:25.055Z,18.36
2017-05-28T05:40:21.386Z,18.38
2017-05-28T05:41:17.671Z,18.41
2017-05-28T05:44:32.164Z,18.48
2017-05-28T05:45:30.907Z,18.51
2017-05-28T05:46:27.179Z,18.53
2017-05-28T05:47:24.243Z,18.56
2017-05-28T05:48:20.516Z,18.57
2017-05-28T05:49:16.803Z,18.60
2017-05-28T05:50:13.123Z,18.62
2017-05-28T05:51:09.403Z,18.64
2017-05-28T05:52:05.664Z,18.67
2017-05-28T05:53:01.939Z,18.69
2017-05-28T05:53:59.251Z,18.72
2017-05-28T05:54:55.541Z,18.73
2017-05-28T05:55:52.660Z,18.76
2017-05-28T05:56:48.935Z,18.78
2017-05-28T05:57:50.460Z,18.80
2017-05-28T05:58:46.787Z,18.82
2017-05-28T05:59:43.107Z,18.86
2017-05-28T06:00:39.386Z,18.89
2017-05-28T06:01:35.655Z,18.91
2017-05-28T06:02:31.967Z,18.93
2017-05-28T06:03:28.235Z,18.95
2017-05-28T06:04:24.519Z,18.97
2017-05-28T06:05:20.783Z,19.00
2017-05-28T06:06:17.079Z,19.03
2017-05-28T06:07:13.352Z,19.03
2017-05-28T06:08:10.407Z,19.07
2017-05-28T06:09:06.695Z,19.09
2017-05-28T06:10:02.974Z,19.11
2017-05-28T06:10:59.231Z,19.13
2017-05-28T06:11:55.502Z,19.15
2017-05-28T06:12:51.851Z,19.18
2017-05-28T06:13:48.123Z,19.20
2017-05-28T06:14:44.419Z,19.23
2017-05-28T06:15:40.719Z,19.25
2017-05-28T06:16:36.995Z,19.26
2017-05-28T06:17:33.251Z,19.30
2017-05-28T06:18:29.567Z,19.33
2017-05-28T06:19:25.855Z,19.34
2017-05-28T06:20:22.186Z,19.37
2017-05-28T06:21:18.453Z,19.41
2017-05-28T06:22:14.735Z,19.43
2017-05-28T06:23:11.028Z,19.46
2017-05-28T06:24:07.304Z,19.49
2017-05-28T06:25:03.571Z,19.50
2017-05-28T06:25:59.842Z,19.53
2017-05-28T06:26:56.111Z,19.55
2017-05-28T06:27:52.380Z,19.58
2017-05-28T06:28:48.658Z,19.60
2017-05-28T06:29:44.922Z,19.64
2017-05-28T06:30:41.190Z,19.67
2017-05-28T06:31:37.511Z,19.69
2017-05-28T06:32:33.780Z,19.71
2017-05-28T06:33:30.053Z,19.74
2017-05-28T06:34:26.356Z,19.78
2017-05-28T06:35:22.621Z,19.80
2017-05-28T06:36:18.951Z,19.82
2017-05-28T06:37:15.222Z,19.84
2017-05-28T06:38:12.419Z,19.86
2017-05-28T06:39:08.704Z,19.90
2017-05-28T06:40:05.095Z,19.94
2017-05-28T06:41:01.355Z,19.97
2017-05-28T06:41:57.631Z,19.99
2017-05-28T06:42:53.932Z,20.03
2017-05-28T06:43:50.236Z,20.08
2017-05-28T06:44:46.503Z,20.09
2017-05-28T06:45:42.787Z,20.13
2017-05-28T06:46:39.061Z,20.16
2017-05-28T06:47:35.381Z,20.19
2017-05-28T06:48:31.636Z,20.21
2017-05-28T06:49:27.911Z,20.25
2017-05-28T06:50:24.211Z,20.30
2017-05-28T06:51:20.483Z,20.33
2017-05-28T06:52:16.755Z,20.37
2017-05-28T06:53:13.044Z,20.40
2017-05-28T06:54:10.315Z,20.43
2017-05-28T06:55:07.459Z,20.45
2017-05-28T06:56:03.754Z,20.48
2017-05-28T06:57:00.042Z,20.50
2017-05-28T06:57:56.430Z,20.52
2017-05-28T06:58:52.687Z,20.55
2017-05-28T06:59:49.022Z,20.58
2017-05-28T07:00:45.297Z,20.59
2017-05-28T07:01:41.571Z,20.62
2017-05-28T07:02:37.847Z,20.63
2017-05-28T07:03:34.122Z,20.63
2017-05-28T07:04:30.523Z,20.64
2017-05-28T07:05:26.782Z,20.64
2017-05-28T07:06:23.047Z,20.66
2017-05-28T07:07:19.326Z,20.65
2017-05-28T07:08:15.847Z,20.67
2017-05-28T07:09:12.116Z,20.68
2017-05-28T07:10:08.375Z,20.71
2017-05-28T07:11:04.639Z,20.74
2017-05-28T07:12:00.908Z,20.77
2017-05-28T07:12:57.171Z,20.82
2017-05-28T07:13:53.436Z,20.84
2017-05-28T07:14:49.716Z,20.87
2017-05-28T07:15:45.988Z,20.92
2017-05-28T07:16:42.267Z,20.95
2017-05-28T07:17:38.547Z,20.99
2017-05-28T07:18:34.812Z,21.03
2017-05-28T07:19:31.063Z,21.07
2017-05-28T07:20:27.331Z,21.10
2017-05-28T07:21:23.611Z,21.14
2017-05-28T07:22:19.892Z,21.18
2017-05-28T07:23:16.156Z,21.21
2017-05-28T07:24:12.432Z,21.26
2017-05-28T07:25:08.683Z,21.30
2017-05-28T07:26:04.940Z,21.35
2017-05-28T07:27:01.254Z,21.37
2017-05-28T07:27:57.610Z,21.40
2017-05-28T07:28:53.884Z,21.42
2017-05-28T07:29:50.140Z,21.47
2017-05-28T07:30:46.403Z,21.49
2017-05-28T07:31:42.800Z,21.52
2017-05-28T07:32:39.064Z,21.55
2017-05-28T07:33:35.334Z,21.57
2017-05-28T07:34:31.623Z,21.59
2017-05-28T07:35:27.895Z,21.61
2017-05-28T07:36:24.179Z,21.64
2017-05-28T07:37:20.430Z,21.66
2017-05-28T07:38:16.691Z,21.69
2017-05-28T07:39:12.995Z,21.72
2017-05-28T07:40:09.271Z,21.73
2017-05-28T07:41:05.547Z,21.76
2017-05-28T07:42:01.810Z,21.77
2017-05-28T07:42:58.070Z,21.79
2017-05-28T07:43:54.347Z,21.80
2017-05-28T07:44:50.627Z,21.81
2017-05-28T07:45:46.884Z,21.83
2017-05-28T07:46:43.220Z,21.84
2017-05-28T07:47:39.475Z,21.85
2017-05-28T07:48:35.747Z,21.87
2017-05-28T07:49:32.019Z,21.89
2017-05-28T07:50:28.316Z,21.91
2017-05-28T07:51:24.580Z,21.92
2017-05-28T07:52:20.910Z,21.94
2017-05-28T07:53:21.852Z,21.96
2017-05-28T07:54:18.127Z,21.98
2017-05-28T07:55:14.522Z,22.00
2017-05-28T07:56:10.787Z,22.04
2017-05-28T07:57:07.043Z,22.07
2017-05-28T07:58:03.473Z,22.09
2017-05-28T07:58:59.750Z,22.11
2017-05-28T07:59:56.023Z,22.12
2017-05-28T08:00:52.315Z,22.15
2017-05-28T08:01:48.594Z,22.17
2017-05-28T08:02:45.008Z,22.19
2017-05-28T08:03:41.295Z,22.22
2017-05-28T08:04:37.554Z,22.25
2017-05-28T08:05:33.831Z,22.28
2017-05-28T08:06:30.134Z,22.32
2017-05-28T08:07:26.403Z,22.35
2017-05-28T08:08:22.667Z,22.39
2017-05-28T08:09:19.063Z,22.42
2017-05-28T08:10:15.432Z,22.46
2017-05-28T08:11:11.727Z,22.50
2017-05-28T08:12:07.987Z,22.54
2017-05-28T08:13:05.165Z,22.57
2017-05-28T08:14:01.467Z,22.61
2017-05-28T08:14:57.755Z,22.65
2017-05-28T08:15:54.030Z,22.68
2017-05-28T08:16:50.301Z,22.71
2017-05-28T08:17:46.562Z,22.76
2017-05-28T08:18:42.828Z,22.79
2017-05-28T08:19:39.095Z,22.83
2017-05-28T08:20:35.375Z,22.87
2017-05-28T08:21:31.643Z,22.89
2017-05-28T08:22:27.917Z,22.93
2017-05-28T08:23:24.202Z,22.96
2017-05-28T08:24:20.471Z,23.00
2017-05-28T08:25:16.743Z,23.01
2017-05-28T08:26:13.037Z,23.07
2017-05-28T08:27:09.311Z,23.08
2017-05-28T08:28:05.603Z,23.11
2017-05-28T08:29:01.869Z,23.15
2017-05-28T08:29:58.140Z,23.19
2017-05-28T08:30:54.399Z,23.22
2017-05-28T08:31:50.664Z,23.26
2017-05-28T08:32:46.935Z,23.28
2017-05-28T08:33:43.235Z,23.33
2017-05-28T08:34:39.497Z,23.37
2017-05-28T08:35:35.755Z,23.40
2017-05-28T08:36:32.021Z,23.42
2017-05-28T08:37:28.304Z,23.44
2017-05-28T08:38:24.617Z,23.50
2017-05-28T08:39:20.886Z,23.53
2017-05-28T08:40:17.150Z,23.56
2017-05-28T08:41:13.399Z,23.61
2017-05-28T08:42:09.680Z,23.64
2017-05-28T08:43:05.951Z,23.67
2017-05-28T08:44:02.230Z,23.70
2017-05-28T08:44:58.495Z,23.72
2017-05-28T08:45:54.772Z,23.77
2017-05-28T08:46:51.034Z,23.82
2017-05-28T08:47:47.305Z,23.88
2017-05-28T08:48:43.563Z,23.92
2017-05-28T08:49:39.851Z,23.95
2017-05-28T08:50:36.107Z,24.00
2017-05-28T08:51:32.371Z,24.06
2017-05-28T08:52:28.635Z,24.09
2017-05-28T08:53:24.908Z,24.14
2017-05-28T08:54:21.183Z,24.19
2017-05-28T08:55:17.475Z,24.25
2017-05-28T08:56:13.723Z,24.29
2017-05-28T08:57:09.991Z,24.32
2017-05-28T08:58:06.251Z,24.40
2017-05-28T08:59:02.574Z,24.45
2017-05-28T08:59:58.843Z,24.57
2017-05-28T09:00:55.112Z,24.67
2017-05-28T09:01:51.383Z,24.78
2017-05-28T09:02:47.651Z,24.92
2017-05-28T09:03:43.926Z,25.03
2017-05-28T09:04:40.187Z,25.17
2017-05-28T09:05:36.446Z,25.30
2017-05-28T09:06:32.735Z,25.44
2017-05-28T09:07:29.025Z,25.57
2017-05-28T09:08:25.287Z,25.70
2017-05-28T09:09:21.549Z,25.85
2017-05-28T09:10:17.803Z,25.97
2017-05-28T09:11:14.115Z,26.11
2017-05-28T09:12:10.392Z,26.24
2017-05-28T09:13:06.655Z,26.36
2017-05-28T09:14:02.975Z,26.49
2017-05-28T09:14:59.279Z,26.61
2017-05-28T09:15:55.539Z,26.73
2017-05-28T09:16:51.843Z,26.85
2017-05-28T09:17:48.402Z,26.97
2017-05-28T09:18:44.679Z,27.10
2017-05-28T09:19:40.976Z,27.21
2017-05-28T09:20:37.283Z,27.32
2017-05-28T09:21:33.617Z,27.45
2017-05-28T09:22:29.891Z,27.56
2017-05-28T09:23:26.193Z,27.68
2017-05-28T09:24:22.488Z,27.81
2017-05-28T09:25:18.759Z,27.92
2017-05-28T09:26:15.081Z,28.03
2017-05-28T09:27:11.365Z,28.16
2017-05-28T09:28:07.679Z,28.25
2017-05-28T09:29:03.942Z,28.38
2017-05-28T09:30:00.230Z,28.49
2017-05-28T09:30:56.498Z,28.59
2017-05-28T09:31:52.799Z,28.68
2017-05-28T09:32:49.070Z,28.78
2017-05-28T09:33:45.352Z,28.88
2017-05-28T09:34:41.627Z,28.99
2017-05-28T09:35:37.895Z,29.10
2017-05-28T09:36:34.151Z,29.21
2017-05-28T09:37:30.426Z,29.33
2017-05-28T09:38:27.003Z,29.44
2017-05-28T09:39:23.935Z,29.56
2017-05-28T09:40:20.251Z,29.66
2017-05-28T09:41:16.657Z,29.76
2017-05-28T09:42:12.939Z,29.87
2017-05-28T09:43:09.232Z,29.98
2017-05-28T09:44:05.567Z,30.07
2017-05-28T09:45:01.843Z,30.17
2017-05-28T09:45:58.131Z,30.24
2017-05-28T09:46:54.391Z,30.30
2017-05-28T09:47:50.661Z,30.39
2017-05-28T09:48:46.946Z,30.46
2017-05-28T09:49:43.271Z,30.53
2017-05-28T09:50:39.543Z,30.62
2017-05-28T09:51:35.807Z,30.69
2017-05-28T09:52:32.079Z,30.75
2017-05-28T09:53:28.376Z,30.82
2017-05-28T09:54:24.639Z,30.89
2017-05-28T09:55:20.926Z,30.96
2017-05-28T09:56:17.200Z,31.03
2017-05-28T09:57:13.487Z,31.07
2017-05-28T09:58:09.777Z,31.12
2017-05-28T09:59:06.067Z,31.18
2017-05-28T10:00:02.318Z,31.24
2017-05-28T10:00:58.595Z,31.30
2017-05-28T10:01:54.909Z,31.36
2017-05-28T10:02:51.137Z,31.39
2017-05-28T10:03:47.420Z,31.43
2017-05-28T10:04:43.695Z,31.47
2017-05-28T10:05:39.998Z,31.51
2017-05-28T10:06:36.311Z,31.54
2017-05-28T10:07:32.575Z,31.57
2017-05-28T10:08:28.860Z,31.58
2017-05-28T10:09:25.152Z,31.61
2017-05-28T10:10:21.452Z,31.63
2017-05-28T10:11:17.756Z,31.64
2017-05-28T10:12:14.012Z,31.66
2017-05-28T10:13:10.273Z,31.70
2017-05-28T10:14:06.539Z,31.73
2017-05-28T10:15:02.799Z,31.75
2017-05-28T10:15:59.076Z,31.77
2017-05-28T10:16:55.394Z,31.79
2017-05-28T10:17:51.643Z,31.80
2017-05-28T10:18:47.902Z,31.81
2017-05-28T10:19:44.218Z,31.81
2017-05-28T10:20:40.591Z,31.83
2017-05-28T10:21:36.867Z,31.85
2017-05-28T10:22:33.163Z,31.85
2017-05-28T10:23:29.445Z,31.86
2017-05-28T10:24:25.734Z,31.87
2017-05-28T10:25:22.005Z,31.88
2017-05-28T10:26:18.271Z,31.89
2017-05-28T10:27:14.535Z,31.88
2017-05-28T10:28:10.858Z,31.88
2017-05-28T10:29:07.131Z,31.91
2017-05-28T10:30:03.401Z,31.92
2017-05-28T10:30:59.659Z,31.92
2017-05-28T10:31:55.927Z,31.94
2017-05-28T10:32:52.187Z,31.97
2017-05-28T10:33:48.484Z,31.98
2017-05-28T10:34:44.748Z,31.99
2017-05-28T10:35:41.002Z,32.00
2017-05-28T10:36:37.279Z,32.02
2017-05-28T10:37:33.547Z,32.03
2017-05-28T10:38:29.807Z,32.05
2017-05-28T10:39:26.067Z,32.07
2017-05-28T10:40:22.332Z,32.09
2017-05-28T10:41:18.627Z,32.13
2017-05-28T10:42:14.895Z,32.16
2017-05-28T10:43:11.143Z,32.17
2017-05-28T10:44:07.439Z,32.19
2017-05-28T10:45:03.696Z,32.21
2017-05-28T10:45:59.954Z,32.23
2017-05-28T10:46:56.206Z,32.24
2017-05-28T10:47:52.451Z,32.26
2017-05-28T10:48:48.711Z,32.28
2017-05-28T10:49:44.976Z,32.28
2017-05-28T10:50:41.235Z,32.29
2017-05-28T10:51:37.489Z,32.31
2017-05-28T10:52:33.769Z,32.34
2017-05-28T10:53:30.031Z,32.35
2017-05-28T10:54:26.304Z,32.37
2017-05-28T10:55:22.578Z,32.39
2017-05-28T10:56:18.839Z,32.42
2017-05-28T10:57:15.083Z,32.45
2017-05-28T10:58:11.351Z,32.46
2017-05-28T10:59:07.613Z,32.49
2017-05-28T11:00:03.897Z,32.52
2017-05-28T11:01:00.151Z,32.54
2017-05-28T11:01:56.411Z,32.57
2017-05-28T11:02:52.672Z,32.59
2017-05-28T11:03:48.930Z,32.62
2017-05-28T11:04:45.172Z,32.64
2017-05-28T11:05:41.447Z,32.65
2017-05-28T11:06:37.727Z,32.68
2017-05-28T11:07:33.999Z,32.71
2017-05-28T11:08:30.243Z,32.72
2017-05-28T11:09:26.522Z,32.73
2017-05-28T11:10:22.779Z,32.75
2017-05-28T11:11:19.064Z,32.76
2017-05-28T11:12:15.323Z,32.76
2017-05-28T11:13:11.587Z,32.76
2017-05-28T11:14:07.827Z,32.78
2017-05-28T11:15:04.087Z,32.79
2017-05-28T11:16:00.356Z,32.81
2017-05-28T11:16:56.627Z,32.83
2017-05-28T11:17:52.905Z,32.87
2017-05-28T11:18:49.155Z,32.89
2017-05-28T11:19:45.423Z,32.92
2017-05-28T11:20:42.387Z,32.93
2017-05-28T11:21:38.643Z,32.96
2017-05-28T11:22:40.633Z,32.99
2017-05-28T11:23:42.847Z,33.02
2017-05-28T11:24:39.131Z,33.06
2017-05-28T11:25:35.381Z,33.09
2017-05-28T11:26:31.643Z,33.13
2017-05-28T11:27:27.888Z,33.16
2017-05-28T11:28:24.149Z,33.19
2017-05-28T11:29:20.391Z,33.22
2017-05-28T11:30:16.643Z,33.24
2017-05-28T11:31:12.911Z,33.26
2017-05-28T11:32:09.163Z,33.28
2017-05-28T11:33:05.423Z,33.31
2017-05-28T11:34:01.704Z,33.35
2017-05-28T11:34:57.964Z,33.39
2017-05-28T11:35:54.227Z,33.42
2017-05-28T11:36:50.487Z,33.46
2017-05-28T11:37:46.734Z,33.49
2017-05-28T11:38:43.015Z,33.52
2017-05-28T11:39:39.254Z,33.54
2017-05-28T11:40:35.527Z,33.58
2017-05-28T11:41:31.838Z,33.59
2017-05-28T11:42:28.079Z,33.59
2017-05-28T11:43:24.339Z,33.62
2017-05-28T11:44:20.615Z,33.65
2017-05-28T11:45:16.863Z,33.67
2017-05-28T11:46:13.111Z,33.70
2017-05-28T11:47:09.371Z,33.72
2017-05-28T11:48:05.638Z,33.76
2017-05-28T11:49:01.882Z,33.77
2017-05-28T11:49:58.155Z,33.81
2017-05-28T11:50:54.534Z,33.81
2017-05-28T11:51:50.811Z,33.84
2017-05-28T11:52:47.063Z,33.86
2017-05-28T11:53:43.316Z,33.88
2017-05-28T11:54:39.572Z,33.90
2017-05-28T11:55:35.840Z,33.91
2017-05-28T11:56:32.091Z,33.92
2017-05-28T11:57:28.347Z,33.93
2017-05-28T11:58:24.607Z,33.94
2017-05-28T11:59:20.862Z,33.97
2017-05-28T12:00:17.131Z,33.98
2017-05-28T12:01:13.403Z,34.02
2017-05-28T12:02:09.646Z,34.05
2017-05-28T12:03:05.923Z,34.07
2017-05-28T12:04:02.190Z,34.09
2017-05-28T12:04:58.455Z,34.09
2017-05-28T12:05:54.722Z,34.12
2017-05-28T12:06:50.971Z,34.12
2017-05-28T12:07:47.215Z,34.13
2017-05-28T12:08:43.503Z,34.15
2017-05-28T12:09:39.759Z,34.18
2017-05-28T12:10:36.015Z,34.21
2017-05-28T12:11:32.287Z,34.23
2017-05-28T12:12:28.560Z,34.25
2017-05-28T12:13:24.803Z,34.24